LERI

Alcantarilla Airport

Airport
ICAO code
LERI
Summary
ICAO Region
EUR
ICAO Territory
Location

,

Serving
Murcia
Elevation
250 ft
Coordinates
37° 57' 4" N , 1° 13' 49" W
Metar
Observation
LERI 071230Z VRB02KT 9999 FEW060 19/10 Q1013 NOSIG
Station
Murcia / Alcantarilla
Date/Time
2022-12-07 12:30:00
Wind speed
02 kts
Lowest cloud amount
few clouds
Temperature
19°C
Dew point
10°C
Humidity
55%
QNH
1013 hPa
Weather condition
n/a

Runways

Designator Length Width Surface Rops
7/25 938 45 ASP No/No

Airport map

Aerial View

SKYbrary Partners:

Safety knowledge contributed by: